Time;durP1;ratioP1;P1;durP2;ratioP2;P2;SDS_P1;SDS_P2;PMS_P1;PMS_P2;Temp;Humidity;BMP_temperature;BMP_pressure;BME280_temperature;BME280_humidity;BME280_pressure;Samples;Min_cycle;Max_cycle;Signal;HPM_P1;HPM_P2
2023/04/30 00:01:54;;;;;;;22.38;14.05;;;;;;;12.71;100.00;100878.53;5036230;28;20116;-75
2023/04/30 00:04:20;;;;;;;24.23;15.20;;;;;;;12.73;100.00;100881.00;5045159;28;20029;-76
2023/04/30 00:06:45;;;;;;;21.67;14.25;;;;;;;12.71;100.00;100877.72;5077649;28;20089;-75
2023/04/30 00:09:10;;;;;;;23.42;15.88;;;;;;;12.70;100.00;100885.25;5041364;28;20021;-76
2023/04/30 00:11:36;;;;;;;20.38;14.10;;;;;;;12.72;100.00;100879.38;5060694;28;20035;-75
2023/04/30 00:14:01;;;;;;;19.25;12.63;;;;;;;12.71;100.00;100878.53;5057805;28;20036;-76
2023/04/30 00:16:27;;;;;;;23.90;14.50;;;;;;;12.71;100.00;100878.53;5040505;28;20025;-76
2023/04/30 00:18:52;;;;;;;21.35;14.85;;;;;;;12.72;100.00;100876.59;5041230;28;20033;-76
2023/04/30 00:21:18;;;;;;;22.45;14.70;;;;;;;12.72;100.00;100879.38;5041112;28;20040;-76
2023/04/30 00:23:43;;;;;;;23.00;14.65;;;;;;;12.70;100.00;100879.69;5024766;28;20036;-75
2023/04/30 00:26:09;;;;;;;21.90;13.88;;;;;;;12.70;100.00;100879.69;5060497;28;20025;-76
2023/04/30 00:28:34;;;;;;;21.50;14.10;;;;;;;12.70;100.00;100876.91;5077586;28;20033;-76
2023/04/30 00:31:00;;;;;;;24.13;14.43;;;;;;;12.68;100.00;100869.97;5044271;28;20392;-76
2023/04/30 00:33:25;;;;;;;21.88;14.13;;;;;;;12.69;100.00;100875.22;5060993;28;20044;-76
2023/04/30 00:35:51;;;;;;;22.10;14.82;;;;;;;12.66;100.00;100870.25;5038443;28;20029;-75
2023/04/30 00:38:16;;;;;;;21.15;14.23;;;;;;;12.63;100.00;100870.84;5053455;28;20036;-75
2023/04/30 00:40:42;;;;;;;18.85;13.48;;;;;;;12.62;100.00;100868.34;5074151;28;20095;-76
2023/04/30 00:43:07;;;;;;;20.27;13.48;;;;;;;12.60;100.00;100877.03;5040751;28;20033;-75
2023/04/30 00:45:33;;;;;;;21.25;14.38;;;;;;;12.61;100.00;100866.69;5031639;28;20393;-75
2023/04/30 00:47:58;;;;;;;20.25;13.65;;;;;;;12.56;100.00;100864.81;5059814;28;20032;-76
2023/04/30 00:50:24;;;;;;;20.65;14.55;;;;;;;12.56;100.00;100869.56;5054168;28;20025;-75
2023/04/30 00:52:49;;;;;;;23.92;14.45;;;;;;;12.54;100.00;100858.72;5024188;28;20029;-76
2023/04/30 00:55:15;;;;;;;25.13;14.48;;;;;;;12.53;100.00;100866.22;5028570;28;20060;-76
2023/04/30 00:57:40;;;;;;;20.45;12.98;;;;;;;12.52;100.00;100863.75;5060368;28;20039;-76
2023/04/30 01:00:10;;;;;;;20.30;13.27;;;;;;;12.49;100.00;100859.59;5060200;28;20094;-76
2023/04/30 01:02:36;;;;;;;20.00;14.23;;;;;;;12.47;100.00;100861.84;5044359;28;20055;-75
2023/04/30 01:05:02;;;;;;;21.73;14.18;;;;;;;12.48;100.00;100862.69;5027289;28;20107;-76
2023/04/30 01:07:28;;;;;;;21.17;14.00;;;;;;;12.47;100.00;100858.25;5042661;28;20020;-75
2023/04/30 01:09:53;;;;;;;20.20;14.30;;;;;;;12.47;100.00;100855.47;5043612;28;20028;-75
2023/04/30 01:12:22;;;;;;;19.02;12.70;;;;;;;12.44;100.00;100856.06;5043793;28;20376;-75
2023/04/30 01:15:00;;;;;;;21.20;13.77;;;;;;;12.41;100.00;100854.69;5077970;28;20024;-76
2023/04/30 01:17:35;;;;;;;20.85;12.65;;;;;;;12.41;100.00;100851.09;5075924;28;20041;-76
2023/04/30 01:20:01;;;;;;;21.33;13.90;;;;;;;12.37;100.00;100848.06;5059869;28;20389;-76
2023/04/30 01:22:26;;;;;;;20.52;13.88;;;;;;;12.35;100.00;100846.72;5043616;28;20111;-75
2023/04/30 01:24:54;;;;;;;20.60;13.50;;;;;;;12.32;100.00;100847.31;5059935;28;20028;-76
2023/04/30 01:27:31;;;;;;;18.77;13.43;;;;;;;12.28;100.00;100845.09;5077536;28;20050;-76
2023/04/30 01:29:56;;;;;;;20.10;12.57;;;;;;;12.24;100.00;100846.84;5059943;28;20025;-75
2023/04/30 01:32:22;;;;;;;20.67;13.48;;;;;;;12.22;100.00;100837.13;5059856;28;20036;-76
2023/04/30 01:34:47;;;;;;;20.25;13.38;;;;;;;12.18;100.00;100841.63;5059797;28;20480;-75
2023/04/30 01:37:15;;;;;;;19.85;13.48;;;;;;;12.16;100.00;100841.91;5043162;28;20031;-75
2023/04/30 01:39:55;;;;;;;19.67;13.05;;;;;;;12.11;100.00;100841.16;5076264;28;20078;-76
2023/04/30 01:42:33;;;;;;;22.08;13.45;;;;;;;12.07;100.00;100841.75;5043009;28;20033;-76
2023/04/30 01:45:10;;;;;;;24.08;14.32;;;;;;;12.03;100.00;100840.66;5044681;28;20407;-76
2023/04/30 01:47:39;;;;;;;18.58;12.85;;;;;;;11.98;100.00;100845.47;5057003;28;20037;-76
2023/04/30 01:50:14;;;;;;;20.20;12.48;;;;;;;11.94;100.00;100842.44;5036736;28;20083;-75
2023/04/30 01:52:46;;;;;;;21.70;14.18;;;;;;;11.89;100.00;100838.88;5051684;28;20032;-76
2023/04/30 01:55:14;;;;;;;21.70;14.00;;;;;;;11.84;100.00;100840.59;5055348;28;20108;-76
2023/04/30 01:57:43;;;;;;;20.20;13.50;;;;;;;11.82;100.00;100839.22;5046775;28;20033;-76
2023/04/30 02:00:13;;;;;;;21.95;14.25;;;;;;;11.77;100.00;100839.25;5053071;28;20036;-76
2023/04/30 02:02:38;;;;;;;19.85;13.45;;;;;;;11.73;100.00;100843.75;5040640;28;20520;-76
2023/04/30 02:05:04;;;;;;;19.35;13.43;;;;;;;11.68;100.00;100839.06;5057861;28;20024;-76
2023/04/30 02:07:40;;;;;;;23.42;14.05;;;;;;;11.63;100.00;100847.47;5042553;28;20140;-76
2023/04/30 02:10:06;;;;;;;18.90;12.85;;;;;;;11.60;100.00;100848.06;5052221;28;20469;-76
2023/04/30 02:12:31;;;;;;;18.80;12.68;;;;;;;11.55;100.00;100845.31;5058918;28;20103;-76
2023/04/30 02:14:57;;;;;;;19.85;13.43;;;;;;;11.53;100.00;100848.41;5039325;28;20075;-76
2023/04/30 02:17:22;;;;;;;19.15;12.85;;;;;;;11.48;100.00;100842.03;5039616;28;20413;-76
2023/04/30 02:19:48;;;;;;;20.65;14.43;;;;;;;11.48;100.00;100840.09;5055769;28;20044;-76
2023/04/30 02:22:13;;;;;;;20.27;13.50;;;;;;;11.44;100.00;100840.97;5042250;28;20090;-76
2023/04/30 02:24:39;;;;;;;19.63;12.88;;;;;;;11.41;100.00;100840.44;5055470;28;20029;-76
2023/04/30 02:27:04;;;;;;;18.48;12.43;;;;;;;11.38;100.00;100840.19;5069362;28;20035;-76
2023/04/30 02:29:30;;;;;;;18.90;12.70;;;;;;;11.39;100.00;100839.91;5075493;28;20029;-76
2023/04/30 02:31:57;;;;;;;17.25;12.00;;;;;;;11.37;100.00;100836.59;5076608;28;20032;-75
2023/04/30 02:34:22;;;;;;;22.08;13.30;;;;;;;11.36;100.00;100840.47;5022288;28;20430;-76
2023/04/30 02:36:48;;;;;;;20.90;13.48;;;;;;;11.37;100.00;100839.38;5069642;28;20028;-76
2023/04/30 02:39:13;;;;;;;22.27;12.65;;;;;;;11.34;100.00;100845.50;5058758;28;20397;-75
2023/04/30 02:41:39;;;;;;;20.80;13.65;;;;;;;11.32;100.00;100838.56;5075302;28;20040;-76
2023/04/30 02:44:04;;;;;;;20.45;12.98;;;;;;;11.31;100.00;100846.09;5075174;28;20133;-76
2023/04/30 02:46:30;;;;;;;19.45;12.52;;;;;;;11.31;100.00;100848.88;5060322;28;20036;-76
2023/04/30 02:48:55;;;;;;;19.13;11.65;;;;;;;11.32;100.00;100852.47;5060053;28;20025;-76
2023/04/30 02:51:21;;;;;;;19.00;13.07;;;;;;;11.29;100.00;100853.06;5050985;28;20033;-76
2023/04/30 02:53:46;;;;;;;20.50;13.82;;;;;;;11.29;100.00;100851.09;5036317;28;20124;-75
2023/04/30 02:56:12;;;;;;;21.30;13.25;;;;;;;11.32;100.00;100852.47;5033871;28;20028;-75
2023/04/30 02:58:37;;;;;;;19.45;12.80;;;;;;;11.32;100.00;100852.47;5058053;28;20040;-76
2023/04/30 03:01:03;;;;;;;21.77;13.35;;;;;;;11.30;100.00;100849.97;5058271;28;20060;-75
2023/04/30 03:03:28;;;;;;;20.95;12.40;;;;;;;11.31;100.00;100850.81;5058319;28;20028;-75
2023/04/30 03:05:55;;;;;;;19.52;13.00;;;;;;;11.30;100.00;100849.97;5059882;28;20473;-76
2023/04/30 03:08:21;;;;;;;19.13;12.60;;;;;;;11.32;100.00;100852.47;5022316;28;20032;-76
2023/04/30 03:10:46;;;;;;;17.88;11.93;;;;;;;11.30;100.00;100851.94;5037837;28;20032;-76
2023/04/30 03:13:12;;;;;;;18.23;12.10;;;;;;;11.31;100.00;100848.88;5073793;28;20393;-76
2023/04/30 03:15:37;;;;;;;17.02;11.77;;;;;;;11.29;100.00;100848.31;5058198;28;20029;-75
2023/04/30 03:18:03;;;;;;;19.50;12.38;;;;;;;11.29;100.00;100848.31;5052057;28;20033;-75
2023/04/30 03:20:28;;;;;;;20.42;12.57;;;;;;;11.31;100.00;100846.09;5029409;28;20037;-75
2023/04/30 03:22:54;;;;;;;17.67;11.35;;;;;;;11.32;100.00;100838.56;5021060;28;20029;-76
2023/04/30 03:25:19;;;;;;;17.52;11.38;;;;;;;11.31;100.00;100840.53;5058201;28;20025;-76
2023/04/30 03:27:45;;;;;;;18.48;11.80;;;;;;;11.30;100.00;100847.19;5041482;28;20039;-76
2023/04/30 03:30:10;;;;;;;18.90;12.18;;;;;;;11.27;100.00;100845.00;5054930;28;20021;-76
2023/04/30 03:32:36;;;;;;;17.38;11.65;;;;;;;11.24;100.00;100840.03;5056906;28;20028;-75
2023/04/30 03:35:01;;;;;;;17.13;11.25;;;;;;;11.22;100.00;100842.25;5041621;28;20059;-76
2023/04/30 03:37:27;;;;;;;19.73;11.32;;;;;;;11.18;100.00;100847.56;5058041;28;20028;-76
2023/04/30 03:39:52;;;;;;;18.80;11.43;;;;;;;11.15;100.00;100847.34;5041540;28;20029;-76
2023/04/30 03:42:17;;;;;;;17.58;11.63;;;;;;;11.13;100.00;100846.78;5038748;28;20044;-76
2023/04/30 03:44:43;;;;;;;19.73;12.02;;;;;;;11.14;100.00;100845.66;5014164;28;20529;-76
2023/04/30 03:47:09;;;;;;;16.75;11.10;;;;;;;11.07;100.00;100854.34;5051653;28;20067;-75
2023/04/30 03:49:34;;;;;;;18.00;11.60;;;;;;;11.06;100.00;100858.25;5045563;28;20112;-76
2023/04/30 03:52:00;;;;;;;16.85;10.50;;;;;;;11.01;100.00;100858.28;5053603;28;20055;-75
2023/04/30 03:54:25;;;;;;;16.92;10.32;;;;;;;10.98;100.00;100861.63;5056368;28;20025;-75
2023/04/30 03:56:51;;;;;;;18.48;10.70;;;;;;;10.95;100.00;100862.22;5055233;28;20078;-76
2023/04/30 03:59:16;;;;;;;19.98;11.38;;;;;;;10.95;100.00;100859.44;5057604;28;20035;-76
2023/04/30 04:01:42;;;;;;;17.83;11.52;;;;;;;10.92;100.00;100859.97;5038486;28;20041;-75
2023/04/30 04:04:08;;;;;;;18.02;10.68;;;;;;;10.89;100.00;100866.97;5021334;28;20056;-75
2023/04/30 04:06:33;;;;;;;18.55;11.65;;;;;;;10.88;100.00;100870.03;5050864;28;20032;-76
2023/04/30 04:08:59;;;;;;;18.90;10.40;;;;;;;10.86;100.00;100864.75;5065337;28;20032;-76
2023/04/30 04:11:25;;;;;;;16.83;10.68;;;;;;;10.83;100.00;100872.81;5038009;28;20469;-75
2023/04/30 04:13:50;;;;;;;18.98;10.27;;;;;;;10.82;100.00;100866.44;5048525;28;20082;-76
2023/04/30 04:16:15;;;;;;;19.17;11.13;;;;;;;10.82;100.00;100868.41;5057640;28;20048;-76
2023/04/30 04:18:41;;;;;;;17.67;10.73;;;;;;;10.78;100.00;100864.53;5040899;28;20082;-76
2023/04/30 04:21:07;;;;;;;17.67;10.57;;;;;;;10.73;100.00;100862.63;5024365;28;20029;-76
2023/04/30 04:23:33;;;;;;;16.48;10.52;;;;;;;10.71;100.00;100864.84;5039276;28;20052;-76
2023/04/30 04:25:59;;;;;;;17.83;10.25;;;;;;;10.71;100.00;100868.44;5057972;28;20045;-75
2023/04/30 04:28:25;;;;;;;14.60;10.25;;;;;;;10.71;100.00;100871.22;5069272;28;20489;-75
2023/04/30 04:30:51;;;;;;;17.60;10.65;;;;;;;10.66;100.00;100867.66;5044761;28;20143;-76
2023/04/30 04:33:17;;;;;;;17.88;10.68;;;;;;;10.65;100.00;100866.00;5044685;28;20036;-75
2023/04/30 04:35:42;;;;;;;17.58;10.95;;;;;;;10.63;100.00;100869.03;5060857;28;20503;-75
2023/04/30 04:38:08;;;;;;;18.88;11.23;;;;;;;10.59;100.00;100861.59;5044318;28;20492;-76
2023/04/30 04:40:34;;;;;;;16.63;10.68;;;;;;;10.57;100.00;100859.09;5060802;28;20033;-76
2023/04/30 04:43:00;;;;;;;19.20;10.35;;;;;;;10.56;100.00;100862.13;5044151;28;20162;-76
2023/04/30 04:45:25;;;;;;;20.95;11.77;;;;;;;10.56;100.00;100856.59;5077423;28;20060;-76
2023/04/30 04:47:51;;;;;;;21.27;11.40;;;;;;;10.54;100.00;100867.16;5059780;28;20497;-76
2023/04/30 04:50:16;;;;;;;21.27;11.77;;;;;;;10.49;100.00;100868.84;5043980;28;20033;-76
2023/04/30 04:52:42;;;;;;;18.80;11.52;;;;;;;10.52;100.00;100871.03;5060699;28;20032;-75
2023/04/30 04:55:08;;;;;;;20.08;12.05;;;;;;;10.51;100.00;100860.22;5060479;28;20413;-76
2023/04/30 04:57:33;;;;;;;18.55;12.18;;;;;;;10.51;100.00;100860.22;5043763;28;20024;-76
2023/04/30 04:59:59;;;;;;;21.08;12.35;;;;;;;10.50;100.00;100862.19;5043919;28;20048;-76
2023/04/30 05:02:25;;;;;;;22.70;12.93;;;;;;;10.50;100.00;100864.97;5077027;28;20056;-76
2023/04/30 05:04:50;;;;;;;21.02;13.45;;;;;;;10.51;100.00;100861.06;5043755;28;20094;-75
2023/04/30 05:07:19;;;;;;;22.13;13.73;;;;;;;10.49;100.00;100868.00;5043385;28;20032;-76
2023/04/30 05:09:45;;;;;;;21.27;12.45;;;;;;;10.48;100.00;100867.19;5043951;28;20025;-76
2023/04/30 05:12:11;;;;;;;20.88;13.25;;;;;;;10.49;100.00;100874.38;5043734;28;20070;-76
2023/04/30 05:14:37;;;;;;;24.30;12.63;;;;;;;10.47;100.00;100875.78;5060329;28;20059;-76
2023/04/30 05:17:02;;;;;;;23.27;14.00;;;;;;;10.47;100.00;100865.53;5043820;28;20056;-76
2023/04/30 05:19:28;;;;;;;20.17;13.52;;;;;;;10.50;100.00;100864.09;5076738;28;20040;-76
2023/04/30 05:21:53;;;;;;;22.67;13.88;;;;;;;10.50;100.00;100869.66;5060135;28;20036;-76
2023/04/30 05:24:19;;;;;;;22.30;14.80;;;;;;;10.52;100.00;100873.81;5022393;28;20027;-75
2023/04/30 05:26:44;;;;;;;22.02;14.10;;;;;;;10.54;100.00;100879.09;5068118;28;20024;-75
2023/04/30 05:29:10;;;;;;;20.45;13.15;;;;;;;10.52;100.00;100871.03;5059681;28;20485;-75
2023/04/30 05:31:36;;;;;;;23.05;14.63;;;;;;;10.56;100.00;100874.09;5043691;28;20180;-76
2023/04/30 05:34:01;;;;;;;21.33;13.40;;;;;;;10.57;100.00;100877.69;5042899;28;20469;-75
2023/04/30 05:36:28;;;;;;;21.52;13.70;;;;;;;10.59;100.00;100873.53;5040027;28;20456;-75
2023/04/30 05:38:53;;;;;;;22.63;13.15;;;;;;;10.58;100.00;100873.78;5057918;28;20025;-76
2023/04/30 05:41:20;;;;;;;21.00;14.13;;;;;;;10.63;100.00;100873.78;5059835;28;20060;-75
2023/04/30 05:43:45;;;;;;;21.75;13.68;;;;;;;10.66;100.00;100873.19;5043076;28;20029;-75
2023/04/30 05:46:11;;;;;;;22.98;14.90;;;;;;;10.74;100.00;100881.75;5039638;28;20028;-76
2023/04/30 05:48:37;;;;;;;22.73;14.00;;;;;;;10.74;100.00;100892.88;5057573;28;20086;-75
2023/04/30 05:51:05;;;;;;;19.52;13.10;;;;;;;10.80;100.00;100888.13;5040265;28;20025;-76
2023/04/30 05:53:30;;;;;;;22.42;14.00;;;;;;;10.82;100.00;100885.91;5039898;28;20048;-75
2023/04/30 05:55:56;;;;;;;25.98;15.35;;;;;;;10.86;100.00;100889.75;5066050;28;20039;-76
2023/04/30 05:58:21;;;;;;;24.40;14.15;;;;;;;10.89;100.00;100882.78;5042487;28;20040;-76
2023/04/30 06:00:53;;;;;;;21.23;14.07;;;;;;;10.92;100.00;100888.63;5075683;28;20036;-76
2023/04/30 06:03:19;;;;;;;23.67;15.07;;;;;;;10.99;100.00;100891.06;5043152;28;20127;-76
2023/04/30 06:05:45;;;;;;;22.15;14.52;;;;;;;11.05;100.00;100884.34;5055535;28;20032;-76
2023/04/30 06:08:10;;;;;;;23.02;14.73;;;;;;;11.11;100.00;100890.72;5022879;28;20094;-76
2023/04/30 06:10:36;;;;;;;23.25;14.73;;;;;;;11.11;100.00;100887.94;5066448;28;20028;-76
2023/04/30 06:13:02;;;;;;;27.73;16.02;;;;;;;11.15;100.00;100898.19;5059106;28;20032;-76
2023/04/30 06:15:27;;;;;;;24.00;14.93;;;;;;;11.19;100.00;100896.47;5075991;28;20025;-76
2023/04/30 06:17:53;;;;;;;24.65;16.55;;;;;;;11.25;100.00;100896.44;5074664;28;20024;-76
2023/04/30 06:20:18;;;;;;;22.48;14.90;;;;;;;11.29;100.00;100901.16;5058822;28;20028;-76
2023/04/30 06:22:44;;;;;;;22.73;14.52;;;;;;;11.33;100.00;100905.00;5075532;28;20033;-76
2023/04/30 06:25:09;;;;;;;22.30;14.70;;;;;;;11.38;100.00;100899.41;5075620;28;20028;-76
2023/04/30 06:27:35;;;;;;;23.30;14.95;;;;;;;11.44;100.00;100902.16;5025317;28;20063;-76
2023/04/30 06:30:00;;;;;;;24.58;16.33;;;;;;;11.48;100.00;100900.44;5032648;28;20025;-76
2023/04/30 06:32:26;;;;;;;26.63;17.33;;;;;;;11.53;100.00;100903.19;5058760;28;20032;-75
2023/04/30 06:34:51;;;;;;;24.10;16.08;;;;;;;11.59;100.00;100910.38;5058706;28;20039;-76
2023/04/30 06:37:17;;;;;;;27.83;17.73;;;;;;;11.63;100.00;100909.50;5074735;28;20039;-76
2023/04/30 06:39:43;;;;;;;30.35;19.20;;;;;;;11.70;100.00;100908.31;5076121;28;20393;-77
2023/04/30 06:42:08;;;;;;;27.02;18.58;;;;;;;11.73;100.00;100904.94;5058240;28;20036;-76
2023/04/30 06:44:34;;;;;;;26.23;17.63;;;;;;;11.79;100.00;100901.03;5075390;28;20039;-76
2023/04/30 06:46:59;;;;;;;24.83;17.58;;;;;;;11.83;100.00;100902.91;5056308;28;20032;-76
2023/04/30 06:49:25;;;;;;;30.15;18.70;;;;;;;11.90;100.00;100899.00;5061345;28;20024;-76
2023/04/30 06:51:50;;;;;;;28.77;17.90;;;;;;;11.95;100.00;100899.78;5075032;28;20028;-76
2023/04/30 06:54:16;;;;;;;29.88;19.27;;;;;;;12.01;100.00;100906.97;5058369;28;20048;-76
2023/04/30 06:56:42;;;;;;;32.25;18.25;;;;;;;12.06;100.00;100903.28;5058306;28;20040;-76
2023/04/30 06:59:08;;;;;;;27.63;18.75;;;;;;;12.13;100.00;100900.97;5074839;28;20024;-76
2023/04/30 07:01:33;;;;;;;26.35;17.23;;;;;;;12.19;100.00;100894.22;5045431;28;20048;-77
2023/04/30 07:04:00;;;;;;;28.67;18.13;;;;;;;12.26;100.00;100894.72;5058304;28;20036;-77
2023/04/30 07:06:25;;;;;;;31.45;18.42;;;;;;;12.33;100.00;100910.22;5041128;28;20020;-76
2023/04/30 07:08:51;;;;;;;27.10;16.83;;;;;;;12.40;100.00;100905.97;5075017;28;20032;-76
2023/04/30 07:11:16;;;;;;;25.83;16.35;;;;;;;12.43;100.00;100904.56;5058482;28;20033;-76
2023/04/30 07:13:42;;;;;;;24.20;16.52;;;;;;;12.50;100.00;100910.56;5058091;28;20036;-76
2023/04/30 07:16:09;;;;;;;26.27;16.55;;;;;;;12.54;100.00;100906.09;5076069;28;20039;-76
2023/04/30 07:18:35;;;;;;;24.90;15.60;;;;;;;12.62;100.00;100910.16;5058686;28;20039;-76
2023/04/30 07:21:00;;;;;;;29.10;16.48;;;;;;;12.68;100.00;100912.59;5057787;28;20111;-76
2023/04/30 07:23:25;;;;;;;22.60;15.85;;;;;;;12.74;100.00;100913.34;5074881;28;20021;-76
2023/04/30 07:25:51;;;;;;;23.42;15.73;;;;;;;12.83;100.00;100919.09;5041618;28;20427;-76
2023/04/30 07:28:16;;;;;;;24.02;14.40;;;;;;;12.90;100.00;100925.13;5014716;28;20029;-76
2023/04/30 07:30:42;;;;;;;23.35;14.80;;;;;;;12.96;100.00;100918.34;5038510;28;20020;-76
2023/04/30 07:33:08;;;;;;;23.55;14.00;;;;;;;13.04;100.00;100927.97;5022075;28;20376;-76
2023/04/30 07:35:34;;;;;;;20.25;14.13;;;;;;;13.13;100.00;100920.63;5018264;28;20079;-76
2023/04/30 07:37:59;;;;;;;21.85;14.05;;;;;;;13.21;100.00;100919.13;5041164;28;20111;-76
2023/04/30 07:40:25;;;;;;;20.38;14.75;;;;;;;13.33;100.00;100922.28;5051675;28;20086;-76
2023/04/30 07:42:50;;;;;;;24.77;15.40;;;;;;;13.41;100.00;100918.81;5047966;28;20397;-76
2023/04/30 07:45:16;;;;;;;18.00;12.60;;;;;;;13.53;100.00;100927.53;5075807;28;20029;-76
2023/04/30 07:47:41;;;;;;;16.85;11.55;;;;;;;13.67;100.00;100930.38;5043231;28;20025;-76
2023/04/30 07:50:07;;;;;;;22.08;12.77;;;;;;;13.81;100.00;100931.25;5074698;28;20041;-77
2023/04/30 07:52:32;;;;;;;18.95;12.73;;;;;;;13.97;100.00;100936.59;5058252;28;20028;-77
2023/04/30 07:54:58;;;;;;;17.42;12.15;;;;;;;14.10;100.00;100933.00;5031811;28;20037;-76
2023/04/30 07:57:25;;;;;;;23.65;13.50;;;;;;;14.22;100.00;100930.53;5038988;28;20037;-77
2023/04/30 07:59:52;;;;;;;16.00;11.18;;;;;;;14.38;100.00;100939.47;5027459;28;20479;-76
2023/04/30 08:02:18;;;;;;;17.05;11.38;;;;;;;14.52;100.00;100929.13;5061515;28;20048;-76
2023/04/30 08:04:43;;;;;;;18.02;11.98;;;;;;;14.70;100.00;100926.53;5061625;28;20078;-76
2023/04/30 08:07:09;;;;;;;16.48;10.68;;;;;;;14.85;100.00;100928.16;5052670;28;20040;-76
2023/04/30 08:09:34;;;;;;;17.10;11.07;;;;;;;15.06;100.00;100928.56;5077978;28;20029;-77
2023/04/30 08:12:00;;;;;;;17.67;12.05;;;;;;;15.24;100.00;100923.94;5058061;28;20083;-77
2023/04/30 08:14:26;;;;;;;20.75;14.52;;;;;;;15.45;100.00;100921.50;5057492;28;20085;-76
2023/04/30 08:16:51;;;;;;;15.80;10.05;;;;;;;15.68;100.00;100925.13;5061305;28;20473;-76
2023/04/30 08:19:17;;;;;;;20.70;13.23;;;;;;;15.93;100.00;100924.50;5061018;28;20043;-77
2023/04/30 08:21:42;;;;;;;20.70;14.25;;;;;;;16.17;100.00;100924.16;5044712;28;20024;-76
2023/04/30 08:24:08;;;;;;;15.85;13.55;;;;;;;16.43;100.00;100915.84;5059980;28;20047;-77
2023/04/30 08:26:34;;;;;;;15.25;10.27;;;;;;;16.70;100.00;100913.97;5078131;28;20024;-77
2023/04/30 08:28:59;;;;;;;12.27;9.38;;;;;;;17.00;100.00;100917.88;5060662;28;20469;-77
2023/04/30 08:31:25;;;;;;;14.50;10.85;;;;;;;17.24;100.00;100911.78;5061103;28;20024;-77
2023/04/30 08:33:50;;;;;;;17.00;11.88;;;;;;;17.48;100.00;100913.28;5078828;28;20024;-77
2023/04/30 08:36:16;;;;;;;17.40;12.55;;;;;;;17.67;100.00;100912.94;5044120;28;20031;-77
2023/04/30 08:38:41;;;;;;;16.15;10.95;;;;;;;17.93;100.00;100915.72;5060866;28;20024;-77
2023/04/30 08:41:14;;;;;;;19.70;12.23;;;;;;;18.12;100.00;100918.97;5078709;28;20055;-77
2023/04/30 08:43:40;;;;;;;16.52;11.50;;;;;;;18.36;100.00;100915.59;5060620;28;20389;-77
2023/04/30 08:46:06;;;;;;;22.95;16.45;;;;;;;18.45;100.00;100915.56;5077519;28;20029;-77
2023/04/30 08:48:31;;;;;;;24.08;16.25;;;;;;;18.60;100.00;100906.53;5041945;28;20025;-77
2023/04/30 08:51:01;;;;;;;19.90;14.93;;;;;;;18.76;100.00;100915.25;5044196;28;20056;-77
2023/04/30 08:53:26;;;;;;;21.60;14.30;;;;;;;18.96;100.00;100902.38;5058002;28;20025;-77
2023/04/30 08:55:52;;;;;;;15.00;11.50;;;;;;;19.13;100.00;100902.25;5040902;28;20029;-77
2023/04/30 08:58:17;;;;;;;19.70;11.45;;;;;;;19.27;100.00;100904.81;5077255;28;20055;-77
2023/04/30 09:00:43;;;;;;;14.45;10.35;;;;;;;19.35;100.00;100900.28;5043571;28;20118;-78
2023/04/30 09:03:08;;;;;;;18.48;13.75;;;;;;;19.43;100.00;100900.19;5043687;28;20037;-77
2023/04/30 09:05:35;;;;;;;19.58;13.02;;;;;;;19.52;100.00;100900.13;5075769;28;20032;-77
2023/04/30 09:08:00;;;;;;;15.10;11.98;;;;;;;19.57;100.00;100897.09;5060481;28;20063;-77
2023/04/30 09:10:26;;;;;;;20.67;15.57;;;;;;;19.60;100.00;100898.41;5059726;28;20493;-77
2023/04/30 09:13:04;;;;;;;18.58;13.43;;;;;;;19.75;100.00;100906.25;5076769;28;20036;-78
2023/04/30 09:15:30;;;;;;;20.98;13.27;;;;;;;19.92;100.00;100899.59;5027689;28;20032;-77
2023/04/30 09:18:06;;;;;;;15.10;11.00;;;;;;;20.09;100.00;100904.22;5023808;28;20017;-78
2023/04/30 09:20:32;;;;;;;17.60;12.77;;;;;;;20.23;100.00;100904.72;5070069;28;20024;-78
2023/04/30 09:23:07;;;;;;;16.65;12.00;;;;;;;20.41;100.00;100891.22;5060131;28;20059;-78
2023/04/30 09:25:40;;;;;;;14.63;9.85;;;;;;;20.59;100.00;100894.69;5043358;28;20442;-78
2023/04/30 09:28:07;;;;;;;13.75;9.80;;;;;;;20.73;100.00;100899.97;5056390;28;20473;-78
2023/04/30 09:30:32;;;;;;;14.98;10.55;;;;;;;20.84;100.00;100898.31;5056071;28;20017;-77
2023/04/30 09:32:58;;;;;;;14.60;11.95;;;;;;;20.90;100.00;100894.06;5067336;28;20036;-77
2023/04/30 09:35:31;;;;;;;19.77;13.88;;;;;;;20.97;100.00;100899.09;5055411;28;20476;-77
2023/04/30 09:37:58;;;;;;;16.92;12.57;;;;;;;21.06;100.00;100891.34;5056784;28;20034;-78
2023/04/30 09:40:40;;;;;;;19.05;13.10;;;;;;;21.17;100.00;100886.84;5056932;28;20028;-77
2023/04/30 09:43:06;;;;;;;14.93;12.07;;;;;;;21.24;100.00;100891.06;5059543;28;20033;-78
2023/04/30 09:45:39;;;;;;;18.92;13.68;;;;;;;21.38;100.00;100894.34;5026530;28;20035;-77
2023/04/30 09:48:05;;;;;;;19.45;13.30;;;;;;;21.42;100.00;100892.41;5067492;28;20063;-78
2023/04/30 09:50:41;;;;;;;17.27;12.23;;;;;;;21.56;100.00;100887.22;5076165;28;20040;-78
2023/04/30 09:53:07;;;;;;;19.90;12.43;;;;;;;21.64;100.00;100889.03;5076254;28;20431;-77
2023/04/30 09:55:34;;;;;;;13.13;10.70;;;;;;;21.74;100.00;100892.53;5046245;28;20021;-77
2023/04/30 09:57:59;;;;;;;14.80;12.25;;;;;;;21.79;98.27;100886.63;5059061;28;20024;-77
2023/04/30 10:00:25;;;;;;;13.57;11.35;;;;;;;21.85;100.00;100890.84;5042682;28;20024;-78
2023/04/30 10:02:51;;;;;;;11.57;9.35;;;;;;;21.91;100.00;100897.88;5059498;28;20098;-78
2023/04/30 10:05:16;;;;;;;9.80;7.95;;;;;;;21.98;100.00;100900.91;5042138;28;20028;-76
2023/04/30 10:07:41;;;;;;;11.35;8.07;;;;;;;22.01;99.81;100894.50;5076997;28;20039;-76
2023/04/30 10:10:08;;;;;;;11.85;8.35;;;;;;;22.03;99.50;100891.31;5039235;28;20028;-76
2023/04/30 10:13:00;;;;;;;12.93;8.70;;;;;;;21.98;99.46;100898.06;5071191;28;20553;-76
2023/04/30 10:15:27;;;;;;;12.88;9.20;;;;;;;21.98;100.00;100897.22;5052509;28;20070;-76
2023/04/30 10:17:59;;;;;;;10.82;8.98;;;;;;;21.92;100.00;100899.50;5054215;28;20033;-76
2023/04/30 10:20:25;;;;;;;10.65;8.13;;;;;;;21.91;100.00;100897.03;5067493;28;20081;-75
2023/04/30 10:22:51;;;;;;;13.82;10.85;;;;;;;21.84;100.00;100894.81;5076485;28;20107;-76
2023/04/30 10:25:17;;;;;;;13.45;10.70;;;;;;;21.86;100.00;100898.13;5048534;28;20481;-76
2023/04/30 10:27:42;;;;;;;9.50;7.53;;;;;;;21.87;100.00;100902.63;5022317;28;20033;-75
2023/04/30 10:30:09;;;;;;;12.43;9.65;;;;;;;21.87;100.00;100902.63;5058746;28;20508;-76
2023/04/30 10:32:59;;;;;;;9.77;8.30;;;;;;;21.89;100.00;100905.88;5039780;28;20423;-76
2023/04/30 10:35:29;;;;;;;13.38;9.95;;;;;;;21.88;100.00;100903.44;5075578;28;20025;-76
2023/04/30 10:38:11;;;;;;;11.05;8.65;;;;;;;21.83;100.00;100905.31;5077244;28;20055;-76
2023/04/30 10:40:37;;;;;;;20.42;13.18;;;;;;;21.80;100.00;100893.91;5058622;28;20028;-76
2023/04/30 10:43:02;;;;;;;15.98;9.82;;;;;;;21.75;100.00;100888.53;5038926;28;20032;-75
2023/04/30 10:45:38;;;;;;;13.38;9.95;;;;;;;21.73;100.00;100885.22;5058230;28;20029;-76
2023/04/30 10:48:04;;;;;;;18.42;13.77;;;;;;;21.63;100.00;100887.41;5058807;28;20024;-76
2023/04/30 10:50:29;;;;;;;20.05;13.50;;;;;;;21.64;100.00;100889.03;5058474;28;20131;-76
2023/04/30 10:53:02;;;;;;;23.23;17.05;;;;;;;21.58;100.00;100884.81;5058450;28;20032;-76
2023/04/30 10:55:28;;;;;;;;;;;;;;;21.58;100.00;100886.84;5061925;28;20087;-76
2023/04/30 10:57:54;;;;;;;21.05;14.70;;;;;;;21.50;100.00;100882.97;5054800;28;19909;-76
2023/04/30 11:00:23;;;;;;;19.65;13.57;;;;;;;21.46;100.00;100886.91;5044175;28;20036;-76